Time;durP1;ratioP1;P1;durP2;ratioP2;P2;SDS_P1;SDS_P2;PMS_P1;PMS_P2;Temp;Humidity;BMP_temperature;BMP_pressure;BME280_temperature;BME280_humidity;BME280_pressure;Samples;Min_cycle;Max_cycle;Signal;HPM_P1;HPM_P2
2021/03/18 00:06:36;;;;;;;;;;;;;;;;;;;;;
2021/03/18 00:09:38;;;;;;;;;;;;;;;;;;;;;
2021/03/18 00:15:46;;;;;;;;;;;;;;;;;;;;;
2021/03/18 00:18:43;;;;;;;;;;;;;;;;;;;;;
2021/03/18 00:21:45;;;;;;;;;;;3.00;90.00;;;;;;6064093;23;20000;-88
2021/03/18 00:37:11;;;;;;;;;;;;;;;;;;;;;
2021/03/18 00:39:59;;;;;;;;;;;2.80;90.10;;;;;;6074165;23;20000;-91
2021/03/18 00:46:04;;;;;;;;;;;2.80;90.20;;;;;;5953022;24;19918;-90
2021/03/18 00:48:49;;;;;;;;;;;2.70;90.20;;;;;;5907536;24;20326;-90
2021/03/18 00:51:32;;;;;;;;;;;;;;;;;;;;;
2021/03/18 00:54:11;;;;;;;;;;;;;;;;;;;;;
2021/03/18 01:21:45;;;;;;;;;;;2.60;90.40;;;;;;6144938;23;19967;-88
2021/03/18 01:27:30;;;;;;;;;;;;;;;;;;;;;
2021/03/18 01:42:11;;;;;;;;;;;2.40;90.50;;;;;;6217790;23;19908;-88
2021/03/18 01:51:09;;;;;;;;;;;2.30;90.50;;;;;;6074479;23;19905;-89
2021/03/18 01:54:16;;;;;;;;;;;;;;;;;;;;;
2021/03/18 02:00:11;;;;;;;;;;;2.30;90.60;;;;;;6036998;23;19928;-88
2021/03/18 02:02:49;;;;;;;;;;;2.30;90.60;;;;;;5988142;23;19910;-88
2021/03/18 02:05:45;;;;;;;;;;;;;;;;;;;;;
2021/03/18 02:17:44;;;;;;;;;;;2.20;90.70;;;;;;6128693;23;19904;-88
2021/03/18 02:20:32;;;;;;;;;;;2.20;90.80;;;;;;6122005;23;19905;-88
2021/03/18 02:26:47;;;;;;;;;;;;;;;;;;;;;
2021/03/18 02:29:43;;;;;;;;;;;2.20;90.80;;;;;;6246387;23;19978;-89
2021/03/18 02:35:23;;;;;;;;;;;2.20;90.90;;;;;;6230000;23;20313;-88
2021/03/18 02:38:11;;;;;;;;;;;2.20;90.90;;;;;;6219945;23;19903;-88
2021/03/18 02:41:22;;;;;;;;;;;;;;;;;;;;;
2021/03/18 02:44:44;;;;;;;;;;;;;;;;;;;;;
2021/03/18 02:50:56;;;;;;;;;;;2.20;91.00;;;;;;6211065;23;19908;-88
2021/03/18 02:53:44;;;;;;;;;;;;;;;;;;;;;
2021/03/18 02:56:25;;;;;;;;;;;;;;;;;;;;;
2021/03/18 02:59:03;;;;;;;;;;;2.20;91.00;;;;;;6218266;23;20401;-89
2021/03/18 03:01:57;;;;;;;;;;;2.20;91.00;;;;;;6192209;23;20293;-90
2021/03/18 03:07:48;;;;;;;;;;;;;;;;;;;;;
2021/03/18 03:10:42;;;;;;;;;;;;;;;;;;;;;
2021/03/18 03:13:41;;;;;;;;;;;;;;;;;;;;;
2021/03/18 03:25:48;;;;;;;;;;;;;;;;;;;;;
2021/03/18 03:40:32;;;;;;;;;;;2.20;91.30;;;;;;6113401;23;19905;-88
2021/03/18 03:48:58;;;;;;;;;;;2.20;91.30;;;;;;6045704;23;19917;-88
2021/03/18 03:51:28;;;;;;;;;;;2.20;91.30;;;;;;6155469;23;19904;-87
2021/03/18 03:54:24;;;;;;;;;;;;;;;;;;;;;
2021/03/18 04:00:23;;;;;;;;;;;2.10;91.40;;;;;;6200897;23;19904;-90
2021/03/18 04:03:19;;;;;;;;;;;;;;;;;;;;;
2021/03/18 04:08:55;;;;;;;;;;;2.10;91.40;;;;;;6192052;23;20213;-89
2021/03/18 04:11:48;;;;;;;;;;;2.10;91.40;;;;;;6190290;23;19931;-91
2021/03/18 04:17:42;;;;;;;;;;;;;;;;;;;;;
2021/03/18 04:23:56;;;;;;;;;;;;;;;;;;;;;
2021/03/18 04:26:42;;;;;;;;;;;2.10;91.40;;;;;;6217741;23;19990;-90
2021/03/18 04:29:44;;;;;;;;;;;;;;;;;;;;;
2021/03/18 04:32:40;;;;;;;;;;;;;;;;;;;;;
2021/03/18 04:35:44;;;;;;;;;;;2.00;91.30;;;;;;6207586;23;20019;-88
2021/03/18 04:38:17;;;;;;;;;;;2.00;91.30;;;;;;6143780;23;19904;-88
2021/03/18 04:41:08;;;;;;;;;;;2.00;91.30;;;;;;6165514;23;19919;-90
2021/03/18 04:43:42;;;;;;;;;;;2.00;91.30;;;;;;6188688;23;19911;-89
2021/03/18 04:49:26;;;;;;;;;;;1.90;91.40;;;;;;6213973;23;19912;-88
2021/03/18 04:55:13;;;;;;;;;;;1.90;91.40;;;;;;6201225;23;19915;-88
2021/03/18 04:58:01;;;;;;;;;;;1.90;91.50;;;;;;6193053;23;19911;-91
2021/03/18 05:00:57;;;;;;;;;;;;;;;;;;;;;
2021/03/18 05:03:48;;;;;;;;;;;2.00;91.50;;;;;;6191730;23;19908;-88
2021/03/18 05:15:55;;;;;;;;;;;;;;;;;;;;;
2021/03/18 05:31:09;;;;;;;;;;;2.10;91.70;;;;;;5848164;24;19915;-91
2021/03/18 05:40:24;;;;;;;;;;;2.20;91.80;;;;;;5792967;24;19917;-92
2021/03/18 06:02:46;;;;;;;;;;;2.40;91.90;;;;;;5900058;24;19907;-90
2021/03/18 06:21:06;;;;;;;;;;;;;;;;;;;;;
2021/03/18 06:30:02;;;;;;;;;;;;;;;;;;;;;
2021/03/18 06:36:05;;;;;;;;;;;2.70;92.10;;;;;;6220353;22;20211;-89
2021/03/18 06:39:03;;;;;;;;;;;2.70;92.10;;;;;;6214709;23;19911;-89
2021/03/18 06:41:34;;;;;;;;;;;2.80;92.10;;;;;;6214154;23;20287;-90
2021/03/18 06:44:19;;;;;;;;;;;2.70;92.10;;;;;;6197067;23;19950;-89
2021/03/18 06:47:03;;;;;;;;;;;2.80;92.10;;;;;;6198108;23;19919;-87
2021/03/18 06:49:57;;;;;;;;;;;2.80;92.20;;;;;;6215830;23;19904;-88
2021/03/18 06:52:36;;;;;;;;;;;2.90;92.20;;;;;;6225502;23;19928;-90
2021/03/18 07:01:59;;;;;;;;;;;2.90;92.20;;;;;;6225239;23;19993;-87
2021/03/18 07:14:12;;;;;;;;;;;;;;;;;;;;;
2021/03/18 07:18:00;;;;;;;;;;;;;;;;;;;;;
2021/03/18 07:30:16;;;;;;;;;;;;;;;;;;;;;
2021/03/18 07:55:19;;;;;;;;;;;;;;;;;;;;;
2021/03/18 07:58:26;;;;;;;;;;;;;;;;;;;;;
2021/03/18 08:07:42;;;;;;;;;;;;;;;;;;;;;
2021/03/18 08:10:54;;;;;;;;;;;;;;;;;;;;;
2021/03/18 08:16:59;;;;;;;;;;;;;;;;;;;;;
2021/03/18 08:19:51;;;;;;;;;;;;;;;;;;;;;
2021/03/18 08:23:01;;;;;;;;;;;4.20;92.30;;;;;;6068709;23;19953;-89
2021/03/18 08:29:25;;;;;;;;;;;4.20;92.30;;;;;;5954849;23;19907;-90
2021/03/18 08:32:26;;;;;;;;;;;;;;;;;;;;;
2021/03/18 08:42:23;;;;;;;;;;;;;;;;;;;;;
2021/03/18 08:48:34;;;;;;;;;;;;;;;;;;;;;
2021/03/18 09:14:26;;;;;;;;;;;;;;;;;;;;;
2021/03/18 10:34:04;;;;;;;;;;;;;;;;;;;;;
2021/03/18 10:43:28;;;;;;;;;;;;;;;;;;;;;
2021/03/18 10:49:41;;;;;;;;;;;;;;;;;;;;;
2021/03/18 18:38:47;;;;;;;;;;;7.00;83.40;;;;;;6155939;23;20350;-91
2021/03/18 18:59:59;;;;;;;;;;;6.80;83.90;;;;;;5950622;24;20740;-88
2021/03/18 19:02:37;;;;;;;;;;;6.80;84.10;;;;;;5947702;24;19914;-87
2021/03/18 19:05:23;;;;;;;;;;;6.80;84.20;;;;;;6016350;23;19930;-88
2021/03/18 19:07:56;;;;;;;;;;;6.70;84.30;;;;;;6098548;23;19917;-88
2021/03/18 19:13:15;;;;;;;;;;;6.70;84.50;;;;;;6123385;23;19911;-87
2021/03/18 19:15:59;;;;;;;;;;;;;;;;;;;;;
2021/03/18 19:18:56;;;;;;;;;;;6.70;84.80;;;;;;6122042;23;19984;-89
2021/03/18 19:21:23;;;;;;;;;;;6.60;84.90;;;;;;6101168;23;19924;-88
2021/03/18 19:23:54;;;;;;;;;;;6.70;85.00;;;;;;6110108;22;19940;-88
2021/03/18 19:26:22;;;;;;;;;;;6.70;85.00;;;;;;6244247;22;19911;-86
2021/03/18 19:28:55;;;;;;;;;;;6.60;85.10;;;;;;6275499;22;19903;-87
2021/03/18 19:31:31;;;;;;;;;;;6.60;85.10;;;;;;6224405;22;20318;-86
2021/03/18 19:34:04;;;;;;;;;;;6.60;85.20;;;;;;6248183;22;19903;-86
2021/03/18 19:36:59;;;;;;;;;;;6.60;85.20;;;;;;6242449;23;20399;-87
2021/03/18 19:39:24;;;;;;;;;;;6.60;85.30;;;;;;6242927;23;19939;-87
2021/03/18 19:42:13;;;;;;;;;;;6.50;85.20;;;;;;6243024;23;20273;-85
2021/03/18 19:44:44;;;;;;;;;;;6.60;85.30;;;;;;6242301;23;20269;-88
2021/03/18 19:47:12;;;;;;;;;;;6.60;85.30;;;;;;6244459;23;19916;-87
2021/03/18 19:49:38;;;;;;;;;;;6.50;85.30;;;;;;6244752;23;19982;-88
2021/03/18 19:52:22;;;;;;;;;;;;;;;;;;;;;
2021/03/18 19:55:01;;;;;;;;;;;6.50;85.40;;;;;;6246604;22;20365;-87
2021/03/18 19:57:47;;;;;;;;;;;6.50;85.30;;;;;;6245094;23;19908;-87
2021/03/18 20:03:10;;;;;;;;;;;6.50;85.40;;;;;;6245637;23;19914;-87
2021/03/18 20:05:35;;;;;;;;;;;6.40;85.40;;;;;;6246879;22;19962;-86
2021/03/18 20:08:17;;;;;;;;;;;;;;;;;;;;;
2021/03/18 20:10:45;;;;;;;;;;;6.40;85.40;;;;;;6245779;23;19966;-88
2021/03/18 20:13:28;;;;;;;;;;;;;;;;;;;;;
2021/03/18 20:16:04;;;;;;;;;;;6.40;85.40;;;;;;6246830;23;19986;-87
2021/03/18 20:18:58;;;;;;;;;;;6.40;85.40;;;;;;6245704;23;19904;-86
2021/03/18 20:21:26;;;;;;;;;;;6.30;85.30;;;;;;6245334;23;19922;-87
2021/03/18 20:26:59;;;;;;;;;;;6.30;85.30;;;;;;6246774;23;20388;-86
2021/03/18 20:29:38;;;;;;;;;;;6.30;85.20;;;;;;6243907;23;19937;-86
2021/03/18 20:32:06;;;;;;;;;;;6.20;85.10;;;;;;6219977;23;20332;-86
2021/03/18 20:34:35;;;;;;;;;;;6.20;85.10;;;;;;6244752;23;19935;-85
2021/03/18 20:40:10;;;;;;;;;;;6.10;85.00;;;;;;6230812;23;19914;-87
2021/03/18 20:43:00;;;;;;;;;;;6.20;85.10;;;;;;6234823;23;19931;-86
2021/03/18 20:45:39;;;;;;;;;;;6.10;85.10;;;;;;6243926;23;19931;-86
2021/03/18 20:48:14;;;;;;;;;;;6.10;85.20;;;;;;6244650;23;19942;-86
2021/03/18 20:50:44;;;;;;;;;;;6.10;85.20;;;;;;6244964;23;19903;-86
2021/03/18 20:53:17;;;;;;;;;;;6.10;85.10;;;;;;6244177;23;19914;-86
2021/03/18 20:55:50;;;;;;;;;;;6.00;85.10;;;;;;6244114;23;19919;-86
2021/03/18 20:58:21;;;;;;;;;;;6.00;85.30;;;;;;6245165;23;19922;-86
2021/03/18 21:00:52;;;;;;;;;;;6.00;85.40;;;;;;6243848;23;19904;-86
2021/03/18 21:03:31;;;;;;;;;;;;;;;;;;;;;
2021/03/18 21:06:20;;;;;;;;;;;5.90;85.40;;;;;;6246172;23;20002;-87
2021/03/18 21:08:57;;;;;;;;;;;5.90;85.60;;;;;;6244907;22;19911;-86
2021/03/18 21:11:28;;;;;;;;;;;5.90;85.60;;;;;;6243557;23;19926;-86
2021/03/18 21:14:06;;;;;;;;;;;;;;;;;;;;;
2021/03/18 21:16:35;;;;;;;;;;;5.80;85.70;;;;;;6244651;23;20266;-87
2021/03/18 21:19:10;;;;;;;;;;;5.80;85.70;;;;;;6243320;23;19914;-86
2021/03/18 21:24:39;;;;;;;;;;;5.80;85.90;;;;;;6244586;22;20347;-86
2021/03/18 21:27:18;;;;;;;;;;;5.80;85.90;;;;;;6242106;23;20001;-86
2021/03/18 21:29:46;;;;;;;;;;;5.70;85.90;;;;;;6243527;23;19903;-86
2021/03/18 21:32:30;;;;;;;;;;;;;;;;;;;;;
2021/03/18 21:35:25;;;;;;;;;;;;;;;;;;;;;
2021/03/18 21:37:59;;;;;;;;;;;5.70;85.70;;;;;;6244094;23;20401;-87
2021/03/18 21:40:32;;;;;;;;;;;5.60;85.80;;;;;;6214175;23;19969;-87
2021/03/18 21:43:39;;;;;;;;;;;5.60;85.80;;;;;;6217939;23;19903;-87
2021/03/18 21:46:37;;;;;;;;;;;;;;;;;;;;;
2021/03/18 21:49:19;;;;;;;;;;;5.60;85.60;;;;;;6236220;23;19974;-87
2021/03/18 21:51:57;;;;;;;;;;;;;;;;;;;;;
2021/03/18 21:54:23;;;;;;;;;;;5.50;85.60;;;;;;6245360;23;19979;-87
2021/03/18 21:57:03;;;;;;;;;;;5.40;85.70;;;;;;6218397;23;20262;-86
2021/03/18 21:59:41;;;;;;;;;;;5.40;85.80;;;;;;6219046;23;19910;-86
2021/03/18 22:02:16;;;;;;;;;;;;;;;;;;;;;
2021/03/18 22:05:12;;;;;;;;;;;;;;;;;;;;;
2021/03/18 22:07:39;;;;;;;;;;;5.30;86.60;;;;;;6242289;23;19959;-87
2021/03/18 22:13:25;;;;;;;;;;;5.30;87.00;;;;;;6224805;23;19912;-87
2021/03/18 22:16:04;;;;;;;;;;;5.30;87.00;;;;;;6243105;23;19907;-87
2021/03/18 22:18:41;;;;;;;;;;;5.30;87.00;;;;;;6215180;23;19908;-87
2021/03/18 22:21:15;;;;;;;;;;;5.30;86.90;;;;;;6216723;23;20600;-86
2021/03/18 22:23:43;;;;;;;;;;;5.20;86.90;;;;;;6217445;23;19912;-87
2021/03/18 22:26:23;;;;;;;;;;;5.20;86.90;;;;;;6219606;23;19939;-86
2021/03/18 22:28:57;;;;;;;;;;;5.20;87.00;;;;;;6218181;23;19915;-85
2021/03/18 22:34:11;;;;;;;;;;;5.10;87.30;;;;;;6223525;23;19914;-86
2021/03/18 22:36:52;;;;;;;;;;;5.00;87.60;;;;;;6232184;23;19947;-87
2021/03/18 22:39:22;;;;;;;;;;;5.00;87.80;;;;;;6244786;23;19908;-88
2021/03/18 22:41:51;;;;;;;;;;;4.90;87.80;;;;;;6243532;23;19903;-87
2021/03/18 22:44:35;;;;;;;;;;;4.90;87.80;;;;;;6217851;23;20211;-87
2021/03/18 22:47:04;;;;;;;;;;;4.90;87.80;;;;;;6239250;23;19922;-87
2021/03/18 22:49:32;;;;;;;;;;;4.90;87.90;;;;;;6214488;23;19907;-88
2021/03/18 22:51:58;;;;;;;;;;;4.90;87.90;;;;;;6245827;22;19904;-86
2021/03/18 22:54:29;;;;;;;;;;;4.80;88.00;;;;;;6243713;23;20294;-86
2021/03/18 22:57:15;;;;;;;;;;;4.80;88.10;;;;;;6244682;23;19908;-87
2021/03/18 22:59:42;;;;;;;;;;;4.80;88.10;;;;;;6245181;23;19907;-87
2021/03/18 23:02:28;;;;;;;;;;;4.80;88.20;;;;;;6244610;22;19946;-87
2021/03/18 23:04:59;;;;;;;;;;;4.70;88.30;;;;;;6245188;22;19974;-87
2021/03/18 23:07:26;;;;;;;;;;;4.70;88.40;;;;;;6218907;23;19916;-86
2021/03/18 23:09:55;;;;;;;;;;;4.60;88.50;;;;;;6242650;23;19982;-87
2021/03/18 23:12:39;;;;;;;;;;;;;;;;;;;;;
2021/03/18 23:15:24;;;;;;;;;;;4.60;88.70;;;;;;6239786;23;19986;-86
2021/03/18 23:21:13;;;;;;;;;;;4.70;89.00;;;;;;6227778;22;19908;-87
2021/03/18 23:23:41;;;;;;;;;;;4.70;89.10;;;;;;6243479;23;19991;-87
2021/03/18 23:26:10;;;;;;;;;;;4.60;89.10;;;;;;6241089;22;19951;-87
2021/03/18 23:28:38;;;;;;;;;;;4.70;89.10;;;;;;6240121;23;19931;-87
2021/03/18 23:31:21;;;;;;;;;;;4.70;89.10;;;;;;6238543;23;19904;-87
2021/03/18 23:37:08;;;;;;;;;;;;;;;;;;;;;
2021/03/18 23:40:03;;;;;;;;;;;4.60;89.00;;;;;;6250780;22;19994;-86
2021/03/18 23:43:07;;;;;;;;;;;4.60;89.00;;;;;;6246494;22;19907;-87
2021/03/18 23:45:40;;;;;;;;;;;4.50;88.90;;;;;;6272148;22;19986;-87
2021/03/18 23:48:09;;;;;;;;;;;4.50;89.00;;;;;;6220544;22;19915;-87
2021/03/18 23:53:36;;;;;;;;;;;;;;;;;;;;;
2021/03/18 23:56:24;;;;;;;;;;;4.50;89.00;;;;;;6251218;22;19987;-86
2021/03/18 23:58:57;;;;;;;;;;;4.40;88.90;;;;;;6246751;22;19903;-86
